sensor_id;sensor_type;location;lat;lon;timestamp;P1;durP1;ratioP1;P2;durP2;ratioP2
39918;SDS011;25589;51.552;13.424;2022-08-23T00:01:15;4.57;;;2.35;;
39918;SDS011;25589;51.552;13.424;2022-08-23T00:03:44;5.07;;;2.67;;
39918;SDS011;25589;51.552;13.424;2022-08-23T00:06:10;5.30;;;2.35;;
39918;SDS011;25589;51.552;13.424;2022-08-23T00:08:36;9.23;;;3.20;;
39918;SDS011;25589;51.552;13.424;2022-08-23T00:11:03;3.60;;;2.72;;
39918;SDS011;25589;51.552;13.424;2022-08-23T00:13:29;5.43;;;2.60;;
39918;SDS011;25589;51.552;13.424;2022-08-23T00:15:56;3.25;;;2.50;;
39918;SDS011;25589;51.552;13.424;2022-08-23T00:18:22;5.05;;;2.60;;
39918;SDS011;25589;51.552;13.424;2022-08-23T00:20:48;4.13;;;2.45;;
39918;SDS011;25589;51.552;13.424;2022-08-23T00:23:14;4.40;;;3.03;;
39918;SDS011;25589;51.552;13.424;2022-08-23T00:25:40;4.15;;;2.67;;
39918;SDS011;25589;51.552;13.424;2022-08-23T00:28:06;5.25;;;3.65;;
39918;SDS011;25589;51.552;13.424;2022-08-23T00:30:32;6.07;;;3.03;;
39918;SDS011;25589;51.552;13.424;2022-08-23T00:32:58;3.25;;;2.85;;
39918;SDS011;25589;51.552;13.424;2022-08-23T00:35:24;3.13;;;2.63;;
39918;SDS011;25589;51.552;13.424;2022-08-23T00:37:50;4.38;;;3.00;;
39918;SDS011;25589;51.552;13.424;2022-08-23T00:40:17;3.38;;;3.08;;
39918;SDS011;25589;51.552;13.424;2022-08-23T00:42:48;6.60;;;3.05;;
39918;SDS011;25589;51.552;13.424;2022-08-23T00:48:44;4.50;;;2.88;;
39918;SDS011;25589;51.552;13.424;2022-08-23T00:51:28;3.25;;;2.95;;
39918;SDS011;25589;51.552;13.424;2022-08-23T00:54:00;4.80;;;2.75;;
39918;SDS011;25589;51.552;13.424;2022-08-23T00:56:27;4.60;;;3.03;;
39918;SDS011;25589;51.552;13.424;2022-08-23T00:58:56;5.80;;;3.15;;
39918;SDS011;25589;51.552;13.424;2022-08-23T01:01:22;4.88;;;3.08;;
39918;SDS011;25589;51.552;13.424;2022-08-23T01:03:49;4.13;;;2.70;;
39918;SDS011;25589;51.552;13.424;2022-08-23T01:06:22;5.78;;;2.90;;
39918;SDS011;25589;51.552;13.424;2022-08-23T01:08:59;4.53;;;3.22;;
39918;SDS011;25589;51.552;13.424;2022-08-23T01:11:41;5.00;;;2.97;;
39918;SDS011;25589;51.552;13.424;2022-08-23T01:14:28;3.75;;;3.35;;
39918;SDS011;25589;51.552;13.424;2022-08-23T01:17:09;4.72;;;2.83;;
39918;SDS011;25589;51.552;13.424;2022-08-23T01:19:41;4.22;;;2.42;;
39918;SDS011;25589;51.552;13.424;2022-08-23T01:22:35;4.07;;;3.33;;
39918;SDS011;25589;51.552;13.424;2022-08-23T01:25:18;6.22;;;3.17;;
39918;SDS011;25589;51.552;13.424;2022-08-23T01:27:46;6.05;;;2.65;;
39918;SDS011;25589;51.552;13.424;2022-08-23T01:30:18;3.50;;;2.78;;
39918;SDS011;25589;51.552;13.424;2022-08-23T01:32:48;5.60;;;2.90;;
39918;SDS011;25589;51.552;13.424;2022-08-23T01:35:18;4.03;;;3.13;;
39918;SDS011;25589;51.552;13.424;2022-08-23T01:37:46;6.90;;;3.42;;
39918;SDS011;25589;51.552;13.424;2022-08-23T01:40:12;7.68;;;3.35;;
39918;SDS011;25589;51.552;13.424;2022-08-23T01:42:39;3.72;;;3.00;;
39918;SDS011;25589;51.552;13.424;2022-08-23T01:45:07;4.85;;;3.08;;
39918;SDS011;25589;51.552;13.424;2022-08-23T01:47:37;4.57;;;2.78;;
39918;SDS011;25589;51.552;13.424;2022-08-23T01:50:03;3.15;;;2.63;;
39918;SDS011;25589;51.552;13.424;2022-08-23T01:52:32;3.38;;;3.03;;
39918;SDS011;25589;51.552;13.424;2022-08-23T01:54:59;4.10;;;2.75;;
39918;SDS011;25589;51.552;13.424;2022-08-23T01:57:26;7.22;;;3.22;;
39918;SDS011;25589;51.552;13.424;2022-08-23T01:59:54;4.88;;;2.72;;
39918;SDS011;25589;51.552;13.424;2022-08-23T02:02:23;5.60;;;3.03;;
39918;SDS011;25589;51.552;13.424;2022-08-23T02:04:50;3.33;;;2.63;;
39918;SDS011;25589;51.552;13.424;2022-08-23T02:07:16;5.63;;;2.95;;
39918;SDS011;25589;51.552;13.424;2022-08-23T02:09:42;5.45;;;3.17;;
39918;SDS011;25589;51.552;13.424;2022-08-23T02:12:08;7.57;;;3.13;;
39918;SDS011;25589;51.552;13.424;2022-08-23T02:14:34;6.95;;;3.13;;
39918;SDS011;25589;51.552;13.424;2022-08-23T02:17:01;3.55;;;3.00;;
39918;SDS011;25589;51.552;13.424;2022-08-23T02:19:28;4.45;;;3.38;;
39918;SDS011;25589;51.552;13.424;2022-08-23T02:21:54;4.15;;;2.83;;
39918;SDS011;25589;51.552;13.424;2022-08-23T02:24:21;7.63;;;3.03;;
39918;SDS011;25589;51.552;13.424;2022-08-23T02:26:50;4.30;;;3.00;;
39918;SDS011;25589;51.552;13.424;2022-08-23T02:29:20;4.93;;;2.97;;
39918;SDS011;25589;51.552;13.424;2022-08-23T02:31:48;5.53;;;2.95;;
39918;SDS011;25589;51.552;13.424;2022-08-23T02:34:14;6.00;;;2.83;;
39918;SDS011;25589;51.552;13.424;2022-08-23T02:36:41;3.97;;;3.05;;
39918;SDS011;25589;51.552;13.424;2022-08-23T02:39:08;4.53;;;3.55;;
39918;SDS011;25589;51.552;13.424;2022-08-23T02:41:34;3.42;;;3.08;;
39918;SDS011;25589;51.552;13.424;2022-08-23T02:44:02;3.38;;;3.08;;
39918;SDS011;25589;51.552;13.424;2022-08-23T02:46:28;6.13;;;4.10;;
39918;SDS011;25589;51.552;13.424;2022-08-23T02:48:54;3.78;;;3.33;;
39918;SDS011;25589;51.552;13.424;2022-08-23T02:51:21;6.72;;;3.25;;
39918;SDS011;25589;51.552;13.424;2022-08-23T02:53:47;3.53;;;2.78;;
39918;SDS011;25589;51.552;13.424;2022-08-23T02:56:14;3.22;;;2.78;;
39918;SDS011;25589;51.552;13.424;2022-08-23T02:58:41;4.50;;;3.38;;
39918;SDS011;25589;51.552;13.424;2022-08-23T03:01:15;3.10;;;2.72;;
39918;SDS011;25589;51.552;13.424;2022-08-23T03:03:43;5.00;;;3.10;;
39918;SDS011;25589;51.552;13.424;2022-08-23T03:06:10;7.38;;;2.85;;
39918;SDS011;25589;51.552;13.424;2022-08-23T03:08:39;4.32;;;2.70;;
39918;SDS011;25589;51.552;13.424;2022-08-23T03:11:09;5.03;;;3.05;;
39918;SDS011;25589;51.552;13.424;2022-08-23T03:13:36;2.95;;;2.70;;
39918;SDS011;25589;51.552;13.424;2022-08-23T03:16:03;5.22;;;3.00;;
39918;SDS011;25589;51.552;13.424;2022-08-23T03:18:28;4.53;;;2.95;;
39918;SDS011;25589;51.552;13.424;2022-08-23T03:20:57;7.45;;;3.08;;
39918;SDS011;25589;51.552;13.424;2022-08-23T03:23:22;3.95;;;3.55;;
39918;SDS011;25589;51.552;13.424;2022-08-23T03:25:48;3.92;;;3.40;;
39918;SDS011;25589;51.552;13.424;2022-08-23T03:28:24;6.20;;;3.55;;
39918;SDS011;25589;51.552;13.424;2022-08-23T03:30:50;4.68;;;3.13;;
39918;SDS011;25589;51.552;13.424;2022-08-23T03:33:17;5.80;;;3.50;;
39918;SDS011;25589;51.552;13.424;2022-08-23T03:35:44;5.07;;;3.10;;
39918;SDS011;25589;51.552;13.424;2022-08-23T03:38:11;3.80;;;3.30;;
39918;SDS011;25589;51.552;13.424;2022-08-23T03:40:38;3.42;;;3.10;;
39918;SDS011;25589;51.552;13.424;2022-08-23T03:43:04;4.13;;;2.95;;
39918;SDS011;25589;51.552;13.424;2022-08-23T03:45:31;7.93;;;2.95;;
39918;SDS011;25589;51.552;13.424;2022-08-23T03:47:57;5.32;;;3.28;;
39918;SDS011;25589;51.552;13.424;2022-08-23T03:50:25;3.80;;;3.25;;
39918;SDS011;25589;51.552;13.424;2022-08-23T03:52:52;6.57;;;3.47;;
39918;SDS011;25589;51.552;13.424;2022-08-23T03:55:18;4.20;;;3.30;;
39918;SDS011;25589;51.552;13.424;2022-08-23T03:57:47;4.90;;;3.83;;
39918;SDS011;25589;51.552;13.424;2022-08-23T04:00:14;5.43;;;3.65;;
39918;SDS011;25589;51.552;13.424;2022-08-23T04:02:42;5.00;;;3.10;;
39918;SDS011;25589;51.552;13.424;2022-08-23T04:05:10;4.47;;;3.45;;
39918;SDS011;25589;51.552;13.424;2022-08-23T04:07:58;5.07;;;3.35;;
39918;SDS011;25589;51.552;13.424;2022-08-23T04:10:24;4.05;;;3.38;;
39918;SDS011;25589;51.552;13.424;2022-08-23T04:12:52;5.60;;;3.40;;
39918;SDS011;25589;51.552;13.424;2022-08-23T04:15:19;5.10;;;3.05;;
39918;SDS011;25589;51.552;13.424;2022-08-23T04:17:46;5.35;;;3.22;;
39918;SDS011;25589;51.552;13.424;2022-08-23T04:20:12;5.85;;;3.17;;
39918;SDS011;25589;51.552;13.424;2022-08-23T04:22:52;6.28;;;3.55;;
39918;SDS011;25589;51.552;13.424;2022-08-23T04:25:19;4.65;;;3.70;;
39918;SDS011;25589;51.552;13.424;2022-08-23T04:27:47;4.93;;;3.72;;
39918;SDS011;25589;51.552;13.424;2022-08-23T04:30:14;8.20;;;4.40;;
39918;SDS011;25589;51.552;13.424;2022-08-23T04:32:40;5.15;;;3.67;;
39918;SDS011;25589;51.552;13.424;2022-08-23T04:35:07;4.75;;;3.95;;
39918;SDS011;25589;51.552;13.424;2022-08-23T04:37:33;5.95;;;3.80;;
39918;SDS011;25589;51.552;13.424;2022-08-23T04:39:59;4.53;;;3.22;;
39918;SDS011;25589;51.552;13.424;2022-08-23T04:42:43;6.25;;;3.55;;
39918;SDS011;25589;51.552;13.424;2022-08-23T04:45:10;6.57;;;3.60;;
39918;SDS011;25589;51.552;13.424;2022-08-23T04:47:37;6.47;;;3.70;;
39918;SDS011;25589;51.552;13.424;2022-08-23T04:50:07;6.38;;;3.90;;
39918;SDS011;25589;51.552;13.424;2022-08-23T04:52:32;6.80;;;3.75;;
39918;SDS011;25589;51.552;13.424;2022-08-23T04:54:58;8.48;;;4.45;;
39918;SDS011;25589;51.552;13.424;2022-08-23T04:57:40;6.18;;;3.75;;
39918;SDS011;25589;51.552;13.424;2022-08-23T05:00:07;6.35;;;4.10;;
39918;SDS011;25589;51.552;13.424;2022-08-23T05:02:40;4.53;;;3.70;;
39918;SDS011;25589;51.552;13.424;2022-08-23T05:05:07;5.53;;;3.47;;
39918;SDS011;25589;51.552;13.424;2022-08-23T05:07:40;5.93;;;3.97;;
39918;SDS011;25589;51.552;13.424;2022-08-23T05:10:07;10.45;;;4.13;;
39918;SDS011;25589;51.552;13.424;2022-08-23T05:12:34;7.15;;;4.05;;
39918;SDS011;25589;51.552;13.424;2022-08-23T05:14:59;9.10;;;4.22;;
39918;SDS011;25589;51.552;13.424;2022-08-23T05:17:26;5.65;;;3.72;;
39918;SDS011;25589;51.552;13.424;2022-08-23T05:19:52;5.80;;;4.25;;
39918;SDS011;25589;51.552;13.424;2022-08-23T05:22:17;5.00;;;4.05;;
39918;SDS011;25589;51.552;13.424;2022-08-23T05:25:01;6.22;;;3.88;;
39918;SDS011;25589;51.552;13.424;2022-08-23T05:27:28;5.00;;;3.85;;
39918;SDS011;25589;51.552;13.424;2022-08-23T05:29:54;4.93;;;4.35;;
39918;SDS011;25589;51.552;13.424;2022-08-23T05:32:20;4.30;;;3.90;;
39918;SDS011;25589;51.552;13.424;2022-08-23T05:34:46;4.82;;;4.03;;
39918;SDS011;25589;51.552;13.424;2022-08-23T05:37:13;5.47;;;3.88;;
39918;SDS011;25589;51.552;13.424;2022-08-23T05:39:40;5.13;;;3.85;;
39918;SDS011;25589;51.552;13.424;2022-08-23T05:42:10;6.45;;;4.65;;
39918;SDS011;25589;51.552;13.424;2022-08-23T05:44:37;8.27;;;4.50;;
39918;SDS011;25589;51.552;13.424;2022-08-23T05:47:05;7.57;;;4.30;;
39918;SDS011;25589;51.552;13.424;2022-08-23T05:49:35;6.72;;;4.05;;
39918;SDS011;25589;51.552;13.424;2022-08-23T05:52:02;6.05;;;3.97;;
39918;SDS011;25589;51.552;13.424;2022-08-23T05:54:30;6.53;;;4.03;;
39918;SDS011;25589;51.552;13.424;2022-08-23T05:57:27;5.68;;;4.18;;
39918;SDS011;25589;51.552;13.424;2022-08-23T05:59:53;6.93;;;4.22;;
39918;SDS011;25589;51.552;13.424;2022-08-23T06:02:19;6.30;;;4.70;;
39918;SDS011;25589;51.552;13.424;2022-08-23T06:04:45;5.32;;;4.70;;
39918;SDS011;25589;51.552;13.424;2022-08-23T06:07:10;5.90;;;4.75;;
39918;SDS011;25589;51.552;13.424;2022-08-23T06:09:36;6.60;;;4.30;;
39918;SDS011;25589;51.552;13.424;2022-08-23T06:12:02;7.15;;;4.43;;
39918;SDS011;25589;51.552;13.424;2022-08-23T06:14:28;6.25;;;4.40;;
39918;SDS011;25589;51.552;13.424;2022-08-23T06:16:53;8.18;;;4.70;;
39918;SDS011;25589;51.552;13.424;2022-08-23T06:19:21;6.97;;;4.18;;
39918;SDS011;25589;51.552;13.424;2022-08-23T06:21:47;8.00;;;4.20;;
39918;SDS011;25589;51.552;13.424;2022-08-23T06:24:21;6.47;;;5.18;;
39918;SDS011;25589;51.552;13.424;2022-08-23T06:26:59;4.63;;;4.10;;
39918;SDS011;25589;51.552;13.424;2022-08-23T06:29:25;6.60;;;4.78;;
39918;SDS011;25589;51.552;13.424;2022-08-23T06:32:11;8.07;;;4.80;;
39918;SDS011;25589;51.552;13.424;2022-08-23T06:34:44;5.10;;;4.38;;
39918;SDS011;25589;51.552;13.424;2022-08-23T06:37:21;6.10;;;4.50;;
39918;SDS011;25589;51.552;13.424;2022-08-23T06:40:19;7.82;;;4.68;;
39918;SDS011;25589;51.552;13.424;2022-08-23T06:42:58;7.10;;;4.55;;
39918;SDS011;25589;51.552;13.424;2022-08-23T06:45:32;7.57;;;5.00;;
39918;SDS011;25589;51.552;13.424;2022-08-23T06:47:58;7.45;;;4.35;;
39918;SDS011;25589;51.552;13.424;2022-08-23T06:50:24;7.07;;;4.82;;
39918;SDS011;25589;51.552;13.424;2022-08-23T06:53:08;5.82;;;4.65;;
39918;SDS011;25589;51.552;13.424;2022-08-23T06:55:50;7.90;;;4.85;;
39918;SDS011;25589;51.552;13.424;2022-08-23T06:58:25;7.93;;;4.40;;
39918;SDS011;25589;51.552;13.424;2022-08-23T07:01:10;8.50;;;4.63;;
39918;SDS011;25589;51.552;13.424;2022-08-23T07:04:00;6.80;;;4.80;;
39918;SDS011;25589;51.552;13.424;2022-08-23T07:07:00;9.10;;;4.90;;
39918;SDS011;25589;51.552;13.424;2022-08-23T07:09:27;6.30;;;4.80;;
39918;SDS011;25589;51.552;13.424;2022-08-23T07:11:54;5.10;;;4.60;;
39918;SDS011;25589;51.552;13.424;2022-08-23T07:14:21;6.60;;;4.68;;
39918;SDS011;25589;51.552;13.424;2022-08-23T07:16:51;7.30;;;5.20;;
39918;SDS011;25589;51.552;13.424;2022-08-23T07:19:20;7.18;;;5.18;;
39918;SDS011;25589;51.552;13.424;2022-08-23T07:21:47;7.25;;;5.15;;
39918;SDS011;25589;51.552;13.424;2022-08-23T07:24:14;7.78;;;5.15;;
39918;SDS011;25589;51.552;13.424;2022-08-23T07:26:41;9.50;;;5.57;;
39918;SDS011;25589;51.552;13.424;2022-08-23T07:29:09;6.68;;;5.63;;
39918;SDS011;25589;51.552;13.424;2022-08-23T07:31:38;7.28;;;5.30;;
39918;SDS011;25589;51.552;13.424;2022-08-23T07:34:08;7.53;;;5.63;;
39918;SDS011;25589;51.552;13.424;2022-08-23T07:36:36;7.85;;;5.30;;
39918;SDS011;25589;51.552;13.424;2022-08-23T07:39:05;9.05;;;6.03;;
39918;SDS011;25589;51.552;13.424;2022-08-23T07:41:32;8.55;;;5.13;;
39918;SDS011;25589;51.552;13.424;2022-08-23T07:44:00;7.05;;;5.65;;
39918;SDS011;25589;51.552;13.424;2022-08-23T07:46:28;9.88;;;5.55;;
39918;SDS011;25589;51.552;13.424;2022-08-23T07:48:55;9.02;;;5.75;;
39918;SDS011;25589;51.552;13.424;2022-08-23T07:51:24;8.48;;;5.40;;
39918;SDS011;25589;51.552;13.424;2022-08-23T07:53:50;7.90;;;5.15;;
39918;SDS011;25589;51.552;13.424;2022-08-23T07:56:18;7.28;;;4.93;;
39918;SDS011;25589;51.552;13.424;2022-08-23T07:58:55;6.60;;;4.57;;
39918;SDS011;25589;51.552;13.424;2022-08-23T08:01:44;7.30;;;5.18;;
39918;SDS011;25589;51.552;13.424;2022-08-23T08:04:10;6.35;;;4.53;;
39918;SDS011;25589;51.552;13.424;2022-08-23T08:06:40;6.35;;;4.22;;
39918;SDS011;25589;51.552;13.424;2022-08-23T08:09:13;7.28;;;4.50;;
39918;SDS011;25589;51.552;13.424;2022-08-23T08:11:41;7.57;;;4.68;;
39918;SDS011;25589;51.552;13.424;2022-08-23T08:14:10;6.50;;;4.45;;
39918;SDS011;25589;51.552;13.424;2022-08-23T08:16:45;5.68;;;4.07;;
39918;SDS011;25589;51.552;13.424;2022-08-23T08:19:17;6.47;;;4.10;;
39918;SDS011;25589;51.552;13.424;2022-08-23T08:22:01;5.43;;;4.05;;
39918;SDS011;25589;51.552;13.424;2022-08-23T08:24:53;4.85;;;3.50;;
39918;SDS011;25589;51.552;13.424;2022-08-23T08:27:19;7.35;;;4.28;;
39918;SDS011;25589;51.552;13.424;2022-08-23T08:29:45;9.40;;;4.10;;
39918;SDS011;25589;51.552;13.424;2022-08-23T08:32:11;5.07;;;3.78;;
39918;SDS011;25589;51.552;13.424;2022-08-23T08:34:36;5.72;;;4.10;;
39918;SDS011;25589;51.552;13.424;2022-08-23T08:37:03;4.97;;;3.45;;
39918;SDS011;25589;51.552;13.424;2022-08-23T08:39:30;5.93;;;3.65;;
39918;SDS011;25589;51.552;13.424;2022-08-23T08:50:30;7.85;;;3.22;;
39918;SDS011;25589;51.552;13.424;2022-08-23T08:53:07;4.88;;;4.10;;
39918;SDS011;25589;51.552;13.424;2022-08-23T08:55:58;6.05;;;3.60;;
39918;SDS011;25589;51.552;13.424;2022-08-23T08:58:29;5.55;;;3.20;;
39918;SDS011;25589;51.552;13.424;2022-08-23T09:01:07;4.05;;;3.65;;
39918;SDS011;25589;51.552;13.424;2022-08-23T09:03:33;5.40;;;3.90;;
39918;SDS011;25589;51.552;13.424;2022-08-23T09:17:17;6.15;;;3.55;;
39918;SDS011;25589;51.552;13.424;2022-08-23T09:19:47;7.10;;;3.28;;
39918;SDS011;25589;51.552;13.424;2022-08-23T09:22:17;4.68;;;2.78;;
39918;SDS011;25589;51.552;13.424;2022-08-23T09:25:00;5.15;;;3.08;;
39918;SDS011;25589;51.552;13.424;2022-08-23T09:27:36;4.72;;;3.08;;
39918;SDS011;25589;51.552;13.424;2022-08-23T09:30:04;6.13;;;3.20;;
39918;SDS011;25589;51.552;13.424;2022-08-23T09:32:31;6.10;;;3.67;;
39918;SDS011;25589;51.552;13.424;2022-08-23T09:35:15;4.07;;;2.65;;
39918;SDS011;25589;51.552;13.424;2022-08-23T09:38:02;4.63;;;2.60;;
39918;SDS011;25589;51.552;13.424;2022-08-23T09:40:46;4.50;;;2.65;;
39918;SDS011;25589;51.552;13.424;2022-08-23T09:43:16;3.88;;;2.72;;
39918;SDS011;25589;51.552;13.424;2022-08-23T09:48:36;4.65;;;3.33;;
39918;SDS011;25589;51.552;13.424;2022-08-23T09:51:24;4.68;;;3.05;;
39918;SDS011;25589;51.552;13.424;2022-08-23T09:54:11;4.60;;;3.05;;
39918;SDS011;25589;51.552;13.424;2022-08-23T09:56:56;4.18;;;2.50;;
39918;SDS011;25589;51.552;13.424;2022-08-23T10:01:56;5.07;;;2.78;;
39918;SDS011;25589;51.552;13.424;2022-08-23T10:04:28;6.32;;;3.03;;
39918;SDS011;25589;51.552;13.424;2022-08-23T10:07:31;3.80;;;2.92;;
39918;SDS011;25589;51.552;13.424;2022-08-23T10:13:13;2.88;;;2.30;;
39918;SDS011;25589;51.552;13.424;2022-08-23T10:15:47;3.58;;;2.67;;
39918;SDS011;25589;51.552;13.424;2022-08-23T10:24:00;5.25;;;2.60;;
39918;SDS011;25589;51.552;13.424;2022-08-23T10:26:54;3.90;;;2.60;;
39918;SDS011;25589;51.552;13.424;2022-08-23T10:29:50;6.10;;;2.85;;
39918;SDS011;25589;51.552;13.424;2022-08-23T10:35:48;4.68;;;2.33;;
39918;SDS011;25589;51.552;13.424;2022-08-23T10:38:41;4.68;;;3.28;;
39918;SDS011;25589;51.552;13.424;2022-08-23T10:41:17;4.13;;;3.17;;
39918;SDS011;25589;51.552;13.424;2022-08-23T10:44:01;2.75;;;2.45;;
39918;SDS011;25589;51.552;13.424;2022-08-23T10:47:08;4.63;;;2.72;;
39918;SDS011;25589;51.552;13.424;2022-08-23T10:49:42;5.28;;;3.00;;
39918;SDS011;25589;51.552;13.424;2022-08-23T10:52:14;3.63;;;2.20;;
39918;SDS011;25589;51.552;13.424;2022-08-23T10:54:47;5.45;;;2.28;;
39918;SDS011;25589;51.552;13.424;2022-08-23T10:57:35;4.20;;;3.03;;
39918;SDS011;25589;51.552;13.424;2022-08-23T11:00:06;4.10;;;2.40;;
39918;SDS011;25589;51.552;13.424;2022-08-23T11:02:42;5.65;;;2.80;;
39918;SDS011;25589;51.552;13.424;2022-08-23T11:08:04;4.25;;;2.25;;
39918;SDS011;25589;51.552;13.424;2022-08-23T11:13:04;4.35;;;1.75;;
39918;SDS011;25589;51.552;13.424;2022-08-23T11:26:10;2.20;;;1.77;;
39918;SDS011;25589;51.552;13.424;2022-08-23T11:31:33;3.40;;;2.28;;
39918;SDS011;25589;51.552;13.424;2022-08-23T11:36:35;3.75;;;1.95;;
39918;SDS011;25589;51.552;13.424;2022-08-23T11:39:07;3.33;;;1.92;;
39918;SDS011;25589;51.552;13.424;2022-08-23T11:44:23;2.40;;;1.90;;
39918;SDS011;25589;51.552;13.424;2022-08-23T11:46:58;2.20;;;1.88;;
39918;SDS011;25589;51.552;13.424;2022-08-23T11:54:55;3.50;;;2.05;;
39918;SDS011;25589;51.552;13.424;2022-08-23T11:57:47;5.07;;;3.03;;
39918;SDS011;25589;51.552;13.424;2022-08-23T12:08:29;4.90;;;2.47;;
39918;SDS011;25589;51.552;13.424;2022-08-23T12:11:18;3.15;;;2.28;;
39918;SDS011;25589;51.552;13.424;2022-08-23T12:13:53;3.25;;;2.35;;
39918;SDS011;25589;51.552;13.424;2022-08-23T12:21:15;4.43;;;2.15;;
39918;SDS011;25589;51.552;13.424;2022-08-23T12:23:58;4.57;;;2.20;;
39918;SDS011;25589;51.552;13.424;2022-08-23T12:26:29;4.85;;;2.50;;
39918;SDS011;25589;51.552;13.424;2022-08-23T12:29:17;3.75;;;2.45;;
39918;SDS011;25589;51.552;13.424;2022-08-23T12:32:04;4.57;;;2.70;;
39918;SDS011;25589;51.552;13.424;2022-08-23T12:34:58;4.57;;;2.40;;
39918;SDS011;25589;51.552;13.424;2022-08-23T12:40:36;3.75;;;2.50;;
39918;SDS011;25589;51.552;13.424;2022-08-23T12:43:05;2.60;;;2.20;;
39918;SDS011;25589;51.552;13.424;2022-08-23T12:45:39;5.40;;;3.08;;
39918;SDS011;25589;51.552;13.424;2022-08-23T12:48:07;4.05;;;2.45;;
39918;SDS011;25589;51.552;13.424;2022-08-23T12:50:36;7.15;;;2.60;;
39918;SDS011;25589;51.552;13.424;2022-08-23T12:55:33;5.63;;;2.42;;
39918;SDS011;25589;51.552;13.424;2022-08-23T12:58:03;4.25;;;2.47;;
39918;SDS011;25589;51.552;13.424;2022-08-23T13:00:40;3.63;;;2.92;;
39918;SDS011;25589;51.552;13.424;2022-08-23T13:03:22;2.85;;;2.20;;
39918;SDS011;25589;51.552;13.424;2022-08-23T13:05:56;4.63;;;2.20;;
39918;SDS011;25589;51.552;13.424;2022-08-23T13:08:31;4.45;;;2.30;;
39918;SDS011;25589;51.552;13.424;2022-08-23T13:11:01;3.15;;;2.35;;
39918;SDS011;25589;51.552;13.424;2022-08-23T13:13:28;7.97;;;2.70;;
39918;SDS011;25589;51.552;13.424;2022-08-23T13:15:57;4.00;;;2.35;;
39918;SDS011;25589;51.552;13.424;2022-08-23T13:18:32;2.83;;;2.37;;
39918;SDS011;25589;51.552;13.424;2022-08-23T13:24:34;4.30;;;2.63;;
39918;SDS011;25589;51.552;13.424;2022-08-23T13:26:53;2.90;;;2.58;;
39918;SDS011;25589;51.552;13.424;2022-08-23T13:29:46;3.57;;;2.27;;
39918;SDS011;25589;51.552;13.424;2022-08-23T13:32:23;3.58;;;2.50;;
39918;SDS011;25589;51.552;13.424;2022-08-23T13:37:49;5.45;;;2.55;;
39918;SDS011;25589;51.552;13.424;2022-08-23T13:40:29;4.55;;;3.08;;
39918;SDS011;25589;51.552;13.424;2022-08-23T13:43:01;3.75;;;2.67;;
39918;SDS011;25589;51.552;13.424;2022-08-23T13:45:30;9.82;;;3.10;;
39918;SDS011;25589;51.552;13.424;2022-08-23T13:48:07;4.30;;;2.70;;
39918;SDS011;25589;51.552;13.424;2022-08-23T13:50:51;5.63;;;2.27;;
39918;SDS011;25589;51.552;13.424;2022-08-23T13:53:17;7.75;;;3.22;;
39918;SDS011;25589;51.552;13.424;2022-08-23T13:55:44;5.40;;;3.22;;
39918;SDS011;25589;51.552;13.424;2022-08-23T14:00:55;4.50;;;2.70;;
39918;SDS011;25589;51.552;13.424;2022-08-23T14:03:22;5.20;;;2.67;;
39918;SDS011;25589;51.552;13.424;2022-08-23T14:05:48;2.75;;;2.30;;
39918;SDS011;25589;51.552;13.424;2022-08-23T14:08:14;2.92;;;2.33;;
39918;SDS011;25589;51.552;13.424;2022-08-23T14:10:39;3.78;;;2.75;;
39918;SDS011;25589;51.552;13.424;2022-08-23T14:13:05;6.72;;;2.50;;
39918;SDS011;25589;51.552;13.424;2022-08-23T14:15:32;6.28;;;2.85;;
39918;SDS011;25589;51.552;13.424;2022-08-23T14:17:58;3.15;;;2.47;;
39918;SDS011;25589;51.552;13.424;2022-08-23T14:20:23;3.72;;;2.33;;
39918;SDS011;25589;51.552;13.424;2022-08-23T14:22:49;3.78;;;2.33;;
39918;SDS011;25589;51.552;13.424;2022-08-23T14:25:16;5.40;;;2.63;;
39918;SDS011;25589;51.552;13.424;2022-08-23T14:27:42;5.97;;;2.10;;
39918;SDS011;25589;51.552;13.424;2022-08-23T14:30:10;3.83;;;2.65;;
39918;SDS011;25589;51.552;13.424;2022-08-23T14:32:45;3.83;;;2.40;;
39918;SDS011;25589;51.552;13.424;2022-08-23T14:35:10;6.13;;;2.40;;
39918;SDS011;25589;51.552;13.424;2022-08-23T14:37:36;5.55;;;2.65;;
39918;SDS011;25589;51.552;13.424;2022-08-23T14:40:02;3.58;;;2.35;;
39918;SDS011;25589;51.552;13.424;2022-08-23T14:42:28;7.25;;;2.63;;
39918;SDS011;25589;51.552;13.424;2022-08-23T14:44:55;5.65;;;2.60;;
39918;SDS011;25589;51.552;13.424;2022-08-23T14:47:21;4.70;;;2.60;;
39918;SDS011;25589;51.552;13.424;2022-08-23T14:49:47;6.18;;;2.58;;
39918;SDS011;25589;51.552;13.424;2022-08-23T14:52:12;3.88;;;2.63;;
39918;SDS011;25589;51.552;13.424;2022-08-23T14:54:39;3.22;;;2.53;;
39918;SDS011;25589;51.552;13.424;2022-08-23T14:57:05;3.95;;;2.38;;
39918;SDS011;25589;51.552;13.424;2022-08-23T14:59:31;7.13;;;2.45;;
39918;SDS011;25589;51.552;13.424;2022-08-23T15:01:56;5.28;;;2.38;;
39918;SDS011;25589;51.552;13.424;2022-08-23T15:04:23;6.07;;;2.15;;
39918;SDS011;25589;51.552;13.424;2022-08-23T15:06:50;5.53;;;2.60;;
39918;SDS011;25589;51.552;13.424;2022-08-23T15:09:16;6.63;;;2.15;;
39918;SDS011;25589;51.552;13.424;2022-08-23T15:11:42;4.93;;;2.50;;
39918;SDS011;25589;51.552;13.424;2022-08-23T15:14:08;4.95;;;2.45;;
39918;SDS011;25589;51.552;13.424;2022-08-23T15:16:33;6.65;;;2.10;;
39918;SDS011;25589;51.552;13.424;2022-08-23T15:18:59;6.82;;;2.78;;
39918;SDS011;25589;51.552;13.424;2022-08-23T15:21:25;3.95;;;2.53;;
39918;SDS011;25589;51.552;13.424;2022-08-23T15:23:51;5.45;;;2.30;;
39918;SDS011;25589;51.552;13.424;2022-08-23T15:26:21;5.03;;;2.40;;
39918;SDS011;25589;51.552;13.424;2022-08-23T15:28:49;5.68;;;2.40;;
39918;SDS011;25589;51.552;13.424;2022-08-23T15:31:15;5.32;;;3.03;;
39918;SDS011;25589;51.552;13.424;2022-08-23T15:33:43;4.70;;;2.63;;
39918;SDS011;25589;51.552;13.424;2022-08-23T15:36:09;4.93;;;2.78;;
39918;SDS011;25589;51.552;13.424;2022-08-23T15:38:37;5.07;;;2.53;;
39918;SDS011;25589;51.552;13.424;2022-08-23T15:41:04;5.20;;;2.35;;
39918;SDS011;25589;51.552;13.424;2022-08-23T15:43:30;5.25;;;2.50;;
39918;SDS011;25589;51.552;13.424;2022-08-23T15:45:57;4.93;;;2.30;;
39918;SDS011;25589;51.552;13.424;2022-08-23T15:48:28;3.65;;;2.75;;
39918;SDS011;25589;51.552;13.424;2022-08-23T15:50:58;2.78;;;2.17;;
39918;SDS011;25589;51.552;13.424;2022-08-23T15:53:24;7.10;;;2.28;;
39918;SDS011;25589;51.552;13.424;2022-08-23T15:55:50;5.30;;;2.33;;
39918;SDS011;25589;51.552;13.424;2022-08-23T15:58:21;3.63;;;2.47;;
39918;SDS011;25589;51.552;13.424;2022-08-23T16:00:48;4.70;;;2.28;;
39918;SDS011;25589;51.552;13.424;2022-08-23T16:03:15;4.03;;;2.58;;
39918;SDS011;25589;51.552;13.424;2022-08-23T16:05:43;7.55;;;2.95;;
39918;SDS011;25589;51.552;13.424;2022-08-23T16:08:17;6.07;;;2.92;;
39918;SDS011;25589;51.552;13.424;2022-08-23T16:10:46;6.32;;;2.60;;
39918;SDS011;25589;51.552;13.424;2022-08-23T16:13:12;5.95;;;2.53;;
39918;SDS011;25589;51.552;13.424;2022-08-23T16:15:38;3.33;;;2.17;;
39918;SDS011;25589;51.552;13.424;2022-08-23T16:18:04;6.13;;;2.22;;
39918;SDS011;25589;51.552;13.424;2022-08-23T16:20:30;3.97;;;2.60;;
39918;SDS011;25589;51.552;13.424;2022-08-23T16:22:55;6.30;;;2.28;;
39918;SDS011;25589;51.552;13.424;2022-08-23T16:25:21;3.60;;;2.78;;
39918;SDS011;25589;51.552;13.424;2022-08-23T16:27:47;3.88;;;2.30;;
39918;SDS011;25589;51.552;13.424;2022-08-23T16:30:12;3.03;;;2.38;;
39918;SDS011;25589;51.552;13.424;2022-08-23T16:32:38;3.97;;;2.30;;